Time;durP1;ratioP1;P1;durP2;ratioP2;P2;SDS_P1;SDS_P2;PMS_P1;PMS_P2;Temp;Humidity;BMP_temperature;BMP_pressure;BME280_temperature;BME280_humidity;BME280_pressure;Samples;Min_cycle;Max_cycle;Signal;HPM_P1;HPM_P2
2021/06/26 00:00:15;;;;;;;43.35;21.02;;;;;;;13.84;100.00;102012.50;4990344;28;20117;-56
2021/06/26 00:02:40;;;;;;;;;;;;;;;13.79;99.64;102012.69;4986026;28;20040;-57
2021/06/26 00:05:08;;;;;;;36.13;17.57;;;;;;;13.75;100.00;102014.66;4991963;28;19929;-57
2021/06/26 00:07:34;;;;;;;38.07;18.90;;;;;;;13.72;100.00;102006.72;4987076;28;20544;-57
2021/06/26 00:09:59;;;;;;;43.15;19.83;;;;;;;13.67;100.00;102016.78;4993976;28;20364;-58
2021/06/26 00:12:24;;;;;;;37.42;18.73;;;;;;;13.65;99.95;102013.31;4989238;28;20040;-55
2021/06/26 00:14:52;;;;;;;44.90;20.50;;;;;;;13.63;100.00;102014.31;4991349;28;20034;-57
2021/06/26 00:17:18;;;;;;;44.47;19.90;;;;;;;13.65;100.00;102018.66;4990710;28;20108;-56
2021/06/26 00:19:43;;;;;;;38.67;18.40;;;;;;;13.68;100.00;102018.53;4991788;28;20315;-57
2021/06/26 00:22:08;;;;;;;50.92;21.50;;;;;;;13.69;100.00;102022.97;4989863;28;20030;-56
2021/06/26 00:24:34;;;;;;;49.50;21.25;;;;;;;13.69;100.00;102024.75;4986680;28;20121;-56
2021/06/26 00:26:59;;;;;;;47.97;20.42;;;;;;;13.68;100.00;102028.41;4990180;28;20034;-56
2021/06/26 00:29:24;;;;;;;46.75;20.65;;;;;;;13.66;100.00;102025.78;4987244;28;20040;-53
2021/06/26 00:31:50;;;;;;;44.55;19.35;;;;;;;13.64;100.00;102024.97;4989736;28;20050;-55
2021/06/26 00:34:15;;;;;;;49.50;20.98;;;;;;;13.65;100.00;102029.41;4987792;28;20041;-53
2021/06/26 00:36:41;;;;;;;50.97;20.50;;;;;;;13.69;100.00;102035.50;4986199;28;20111;-57
2021/06/26 00:39:06;;;;;;;48.70;20.65;;;;;;;13.66;100.00;102031.13;4991622;28;20025;-56
2021/06/26 00:41:31;;;;;;;52.40;21.08;;;;;;;13.66;100.00;102028.47;4986539;28;20029;-55
2021/06/26 00:43:57;;;;;;;62.05;22.70;;;;;;;13.73;100.00;102032.59;4992608;28;20061;-57
2021/06/26 00:46:22;;;;;;;70.57;23.65;;;;;;;13.81;100.00;102032.28;4987046;28;20033;-55
2021/06/26 00:48:48;;;;;;;91.85;27.40;;;;;;;13.89;100.00;102015.81;4989047;28;20065;-55
2021/06/26 00:51:13;;;;;;;83.22;26.55;;;;;;;13.98;100.00;102023.44;4988469;28;20040;-56
2021/06/26 00:53:39;;;;;;;92.20;27.30;;;;;;;13.98;100.00;102020.78;4992733;28;20965;-55
2021/06/26 00:56:05;;;;;;;76.18;26.48;;;;;;;13.99;100.00;102017.16;4989556;28;20041;-56
2021/06/26 00:58:30;;;;;;;85.93;30.38;;;;;;;14.03;100.00;102024.09;4985942;28;20041;-55
2021/06/26 01:00:56;;;;;;;93.82;29.27;;;;;;;14.11;100.00;102022.88;4988896;28;20120;-57
2021/06/26 01:03:21;;;;;;;74.80;27.98;;;;;;;14.15;100.00;102027.16;4988110;28;20420;-57
2021/06/26 01:05:50;;;;;;;86.07;29.75;;;;;;;14.19;100.00;102023.38;4991586;28;20034;-56
2021/06/26 01:08:15;;;;;;;65.43;24.90;;;;;;;14.16;100.00;102029.78;4987192;28;20104;-57
2021/06/26 01:10:41;;;;;;;80.47;27.73;;;;;;;14.17;100.00;102030.66;4988747;28;20318;-55
2021/06/26 01:13:07;;;;;;;64.75;24.05;;;;;;;14.16;100.00;102029.78;4989821;28;20026;-56
2021/06/26 01:15:32;;;;;;;62.85;23.88;;;;;;;14.15;100.00;102027.16;4985929;28;20100;-55
2021/06/26 01:17:58;;;;;;;66.63;23.52;;;;;;;14.13;100.00;102031.72;4994261;28;20537;-55
2021/06/26 01:20:24;;;;;;;56.05;22.90;;;;;;;14.12;100.00;102030.00;4984090;28;20041;-56
2021/06/26 01:22:58;;;;;;;;;;;;;;;14.14;100.00;102034.34;5004108;28;20353;-56
2021/06/26 01:25:25;;;;;;;89.90;28.03;;;;;;;14.16;100.00;102035.16;4988804;28;19928;-56
2021/06/26 01:27:52;;;;;;;89.27;30.53;;;;;;;14.19;100.00;102036.81;4989571;28;20283;-57
2021/06/26 01:30:18;;;;;;;;;;;;;;;14.21;100.00;102029.56;4987336;28;20343;-57
2021/06/26 01:32:43;;;;;;;86.65;29.60;;;;;;;14.22;100.00;102028.63;4988910;28;19925;-58
2021/06/26 01:35:09;;;;;;;96.65;29.95;;;;;;;14.22;100.00;102036.69;4991929;28;20492;-57
2021/06/26 01:37:39;;;;;;;100.68;29.70;;;;;;;14.23;100.00;102033.91;4986026;28;20033;-57
2021/06/26 01:40:05;;;;;;;92.53;28.83;;;;;;;14.25;100.00;102037.41;4993240;28;20030;-57
2021/06/26 01:42:31;;;;;;;101.28;32.10;;;;;;;14.26;100.00;102035.56;4986849;28;20735;-58
2021/06/26 01:44:56;;;;;;;109.25;32.40;;;;;;;14.26;100.00;102032.88;4992152;28;20022;-57
2021/06/26 01:47:21;;;;;;;115.53;31.05;;;;;;;14.27;100.00;102048.06;4992615;28;20612;-57
2021/06/26 01:49:47;;;;;;;105.45;30.73;;;;;;;14.28;100.00;102040.91;4994415;28;20545;-57
2021/06/26 01:52:12;;;;;;;94.35;29.40;;;;;;;14.31;100.00;102038.94;4992472;28;20110;-55
2021/06/26 01:54:38;;;;;;;95.95;29.67;;;;;;;14.32;100.00;102046.03;4990983;28;20052;-55
2021/06/26 01:57:08;;;;;;;120.10;31.55;;;;;;;14.33;100.00;102042.38;4987196;28;20022;-56
2021/06/26 01:59:33;;;;;;;99.83;29.57;;;;;;;14.35;100.00;102040.50;4992637;28;20033;-56
2021/06/26 02:01:58;;;;;;;108.82;30.63;;;;;;;14.37;100.00;102041.31;4991410;28;20695;-57
2021/06/26 02:04:24;;;;;;;112.40;31.02;;;;;;;14.39;100.00;102047.50;4988318;28;20030;-56
2021/06/26 02:06:49;;;;;;;100.20;30.35;;;;;;;14.40;100.00;102048.34;4991022;28;20341;-56
2021/06/26 02:09:15;;;;;;;113.97;32.08;;;;;;;14.41;100.00;102050.09;4992513;28;20096;-56
2021/06/26 02:11:40;;;;;;;110.80;32.00;;;;;;;14.43;100.00;102060.75;4990865;28;20059;-57
2021/06/26 02:14:05;;;;;;;90.78;30.48;;;;;;;14.46;100.00;102068.69;4994571;28;20358;-57
2021/06/26 02:16:31;;;;;;;111.07;33.33;;;;;;;14.45;100.00;102067.78;4991705;28;20085;-57
2021/06/26 02:18:56;;;;;;;96.32;33.22;;;;;;;14.46;100.00;102058.78;4991018;28;20401;-57
2021/06/26 02:21:23;;;;;;;96.88;31.10;;;;;;;14.45;100.00;102053.50;4994263;28;20818;-56
2021/06/26 02:23:48;;;;;;;101.97;32.67;;;;;;;14.46;100.00;102052.56;4990183;28;20022;-58
2021/06/26 02:26:14;;;;;;;114.38;33.65;;;;;;;14.45;100.00;102050.81;4990156;28;20327;-58
2021/06/26 02:28:39;;;;;;;100.88;31.52;;;;;;;14.45;100.00;102050.81;4988526;28;20552;-57
2021/06/26 02:31:04;;;;;;;95.65;31.67;;;;;;;14.46;100.00;102055.25;5005511;28;20061;-56
2021/06/26 02:33:30;;;;;;;99.50;33.35;;;;;;;14.48;100.00;102056.91;4991359;28;20125;-58
2021/06/26 02:35:55;;;;;;;113.07;33.03;;;;;;;14.48;100.00;102056.91;4992972;28;20034;-57
2021/06/26 02:38:21;;;;;;;84.50;32.92;;;;;;;14.48;100.00;102056.06;4993223;28;20030;-56
2021/06/26 02:40:46;;;;;;;87.03;33.53;;;;;;;14.48;100.00;102056.06;4990634;28;20065;-58
2021/06/26 02:43:11;;;;;;;94.00;31.65;;;;;;;14.49;100.00;102057.78;4990565;28;20371;-55
2021/06/26 02:45:37;;;;;;;97.65;34.40;;;;;;;14.49;100.00;102047.03;4992306;28;20714;-56
2021/06/26 02:48:02;;;;;;;82.05;30.25;;;;;;;14.49;100.00;102042.56;4995181;28;20368;-56
2021/06/26 02:50:28;;;;;;;86.07;33.05;;;;;;;14.49;100.00;102044.34;4990960;28;20045;-57
2021/06/26 02:52:53;;;;;;;84.07;30.85;;;;;;;14.49;100.00;102047.91;4990327;28;20355;-56
2021/06/26 02:55:19;;;;;;;88.35;32.53;;;;;;;14.48;100.00;102045.31;4992117;28;20125;-57
2021/06/26 02:57:44;;;;;;;86.38;31.23;;;;;;;14.48;100.00;102048.88;4991478;28;20030;-56
2021/06/26 03:00:10;;;;;;;79.15;30.73;;;;;;;14.49;100.00;102052.41;4991088;28;20030;-57
2021/06/26 03:02:36;;;;;;;;;;;;;;;14.47;100.00;102051.63;5001505;28;20545;-54
2021/06/26 03:05:01;;;;;;;84.13;32.80;;;;;;;14.46;100.00;102055.25;4992947;28;19959;-58
2021/06/26 03:07:27;;;;;;;80.93;31.42;;;;;;;14.46;100.00;102057.94;4990797;28;20498;-55
2021/06/26 03:09:52;;;;;;;79.97;32.25;;;;;;;14.46;100.00;102060.63;4992502;28;20061;-56
2021/06/26 03:12:18;;;;;;;76.20;30.83;;;;;;;14.47;100.00;102062.38;4990780;28;20030;-57
2021/06/26 03:14:43;;;;;;;83.85;31.90;;;;;;;14.46;100.00;102060.63;4994336;28;20029;-55
2021/06/26 03:17:08;;;;;;;89.25;33.47;;;;;;;14.46;100.00;102058.78;4988525;28;20026;-55
2021/06/26 03:19:34;;;;;;;81.18;32.05;;;;;;;14.47;100.00;102062.38;4990217;28;20037;-56
2021/06/26 03:21:59;;;;;;;87.75;32.53;;;;;;;14.46;100.00;102057.94;4990489;28;20072;-56
2021/06/26 03:24:27;;;;;;;96.82;34.45;;;;;;;14.47;100.00;102059.69;4990003;28;20041;-55
2021/06/26 03:26:52;;;;;;;89.70;34.07;;;;;;;14.47;100.00;102054.31;4991947;28;20493;-57
2021/06/26 03:29:18;;;;;;;84.60;31.48;;;;;;;14.48;100.00;102051.53;4990823;28;20347;-58
2021/06/26 03:31:43;;;;;;;88.97;33.50;;;;;;;14.48;100.00;102056.06;4988838;28;20054;-55
2021/06/26 03:34:08;;;;;;;87.30;32.13;;;;;;;14.47;100.00;102048.94;4989659;28;20049;-57
2021/06/26 03:36:34;;;;;;;88.03;33.63;;;;;;;14.48;100.00;102054.22;4992516;28;20109;-56
2021/06/26 03:38:59;;;;;;;87.53;34.05;;;;;;;14.50;100.00;102062.22;4992705;28;20117;-56
2021/06/26 03:41:26;;;;;;;92.47;33.20;;;;;;;14.50;100.00;102059.53;4989623;28;20132;-56
2021/06/26 03:43:57;;;;;;;98.20;35.93;;;;;;;14.50;100.00;102065.78;4988957;28;20579;-56
2021/06/26 03:46:23;;;;;;;91.50;34.63;;;;;;;14.50;100.00;102063.09;4989280;28;20848;-55
2021/06/26 03:48:48;;;;;;;86.30;35.30;;;;;;;14.52;100.00;102063.00;5006606;28;20285;-56
2021/06/26 03:51:14;;;;;;;88.70;35.65;;;;;;;14.54;100.00;102055.75;4989613;28;20046;-55
2021/06/26 03:53:39;;;;;;;84.70;33.60;;;;;;;14.55;100.00;102060.19;4990700;28;20018;-55
2021/06/26 03:56:05;;;;;;;93.82;37.17;;;;;;;14.55;100.00;102062.88;4992220;28;20053;-56
2021/06/26 03:58:30;;;;;;;93.43;36.97;;;;;;;14.56;100.00;102059.22;4986278;28;20034;-58
2021/06/26 04:00:56;;;;;;;89.55;35.00;;;;;;;14.59;100.00;102064.47;4991290;28;21393;-56
2021/06/26 04:03:23;;;;;;;85.35;35.55;;;;;;;14.61;100.00;102059.00;4992534;28;20484;-55
2021/06/26 04:05:49;;;;;;;83.07;35.10;;;;;;;14.62;100.00;102069.69;4990507;28;20593;-57
2021/06/26 04:08:14;;;;;;;82.63;35.22;;;;;;;14.63;100.00;102059.81;5004865;28;20296;-57
2021/06/26 04:10:41;;;;;;;84.57;37.20;;;;;;;14.63;100.00;102066.06;4990060;28;20033;-55
2021/06/26 04:13:07;;;;;;;80.83;34.93;;;;;;;14.66;100.00;102065.09;4991794;28;20022;-58
2021/06/26 04:15:33;;;;;;;74.97;36.05;;;;;;;14.67;100.00;102069.50;4988394;28;20673;-56
2021/06/26 04:17:58;;;;;;;75.68;36.70;;;;;;;14.68;100.00;102072.13;5008005;28;20026;-56
2021/06/26 04:20:24;;;;;;;72.68;35.15;;;;;;;14.71;100.00;102074.63;4988268;28;20498;-57
2021/06/26 04:22:49;;;;;;;72.90;35.80;;;;;;;14.72;100.00;102073.69;4990978;28;20373;-57
2021/06/26 04:25:15;;;;;;;77.30;36.22;;;;;;;14.75;100.00;102066.44;4986183;28;20466;-56
2021/06/26 04:27:41;;;;;;;81.68;36.75;;;;;;;14.77;100.00;102073.47;4989417;28;20084;-58
2021/06/26 04:30:07;;;;;;;70.60;36.42;;;;;;;14.79;100.00;102074.28;4993407;28;20030;-56
2021/06/26 04:32:35;;;;;;;70.20;35.73;;;;;;;14.81;100.00;102082.25;4996518;28;20101;-56
2021/06/26 04:35:01;;;;;;;76.83;37.83;;;;;;;14.80;100.00;102084.09;4994954;28;20358;-57
2021/06/26 04:37:27;;;;;;;76.68;38.03;;;;;;;14.82;100.00;102081.31;4988106;28;20758;-57
2021/06/26 04:39:52;;;;;;;;;;;;;;;14.81;100.00;102085.81;4992527;28;20528;-57
2021/06/26 04:42:17;;;;;;;74.93;38.43;;;;;;;14.78;100.00;102075.22;4987786;28;19925;-58
2021/06/26 04:44:43;;;;;;;74.70;36.90;;;;;;;14.78;100.00;102075.22;4990075;28;20038;-57
2021/06/26 04:47:08;;;;;;;69.47;34.85;;;;;;;14.80;100.00;102075.13;4987801;28;20033;-57
2021/06/26 04:49:35;;;;;;;84.47;37.90;;;;;;;14.82;100.00;102073.25;4987807;28;20030;-57
2021/06/26 04:52:00;;;;;;;80.70;40.47;;;;;;;14.80;100.00;102073.34;4991303;28;20038;-56
2021/06/26 04:54:25;;;;;;;77.28;38.00;;;;;;;14.81;100.00;102077.78;4989096;28;20794;-56
2021/06/26 04:56:51;;;;;;;80.80;36.97;;;;;;;14.80;100.00;102078.72;4991708;28;20512;-55
2021/06/26 04:59:16;;;;;;;75.03;38.22;;;;;;;14.81;99.83;102074.19;4987451;28;20056;-58
2021/06/26 05:01:41;;;;;;;73.88;37.15;;;;;;;14.79;99.89;102082.34;4989866;28;20049;-58
2021/06/26 05:04:07;;;;;;;87.47;38.33;;;;;;;14.79;100.00;102085.03;4988911;28;20165;-57
2021/06/26 05:06:32;;;;;;;73.68;35.42;;;;;;;14.80;100.00;102083.19;4991271;28;20037;-57
2021/06/26 05:08:58;;;;;;;86.93;39.58;;;;;;;14.79;99.89;102087.72;4990894;28;20490;-57
2021/06/26 05:11:23;;;;;;;83.38;40.00;;;;;;;14.80;100.00;102080.50;4988333;28;20041;-56
2021/06/26 05:13:49;;;;;;;80.22;39.25;;;;;;;14.79;100.00;102076.97;4992109;28;20025;-56
2021/06/26 05:16:14;;;;;;;85.03;40.58;;;;;;;14.80;100.00;102078.72;4992386;28;20037;-56
2021/06/26 05:18:39;;;;;;;83.30;38.95;;;;;;;14.83;100.00;102077.69;4990623;28;20088;-57
2021/06/26 05:21:06;;;;;;;86.00;40.67;;;;;;;14.85;100.00;102083.84;4992192;28;20652;-55
2021/06/26 05:23:31;;;;;;;72.00;35.80;;;;;;;14.91;100.00;102078.19;4991443;28;20091;-56
2021/06/26 05:25:56;;;;;;;71.63;38.17;;;;;;;14.92;100.00;102084.41;4994529;28;20293;-57
2021/06/26 05:28:22;;;;;;;84.75;40.35;;;;;;;14.95;100.00;102082.44;4976591;28;20109;-56
2021/06/26 05:30:47;;;;;;;88.82;39.97;;;;;;;15.02;100.00;102083.88;4992843;28;20057;-58
2021/06/26 05:33:13;;;;;;;68.05;37.22;;;;;;;15.08;99.86;102081.84;4992335;28;20042;-59
2021/06/26 05:35:39;;;;;;;68.78;37.58;;;;;;;15.14;99.89;102082.41;4989820;28;20540;-60
2021/06/26 05:38:04;;;;;;;67.50;36.63;;;;;;;15.18;99.50;102083.13;4988868;28;20146;-56
2021/06/26 05:40:30;;;;;;;68.28;37.20;;;;;;;15.23;99.22;102086.47;4988644;28;20172;-56
2021/06/26 05:42:55;;;;;;;65.80;36.15;;;;;;;15.33;99.22;102090.41;4993133;28;20148;-57
2021/06/26 05:45:21;;;;;;;54.38;33.25;;;;;;;15.48;99.13;102082.50;4990922;28;20044;-57
2021/06/26 05:47:46;;;;;;;55.63;35.20;;;;;;;15.62;98.72;102076.41;4995316;28;20030;-56
2021/06/26 05:50:12;;;;;;;62.90;36.88;;;;;;;15.78;98.04;102077.34;4993077;28;20049;-57
2021/06/26 05:52:48;;;;;;;47.63;33.28;;;;;;;15.81;97.09;102085.28;4989576;28;20111;-56
2021/06/26 05:55:14;;;;;;;58.35;35.33;;;;;;;15.83;96.78;102083.38;4991598;28;20091;-57
2021/06/26 05:57:39;;;;;;;51.67;34.83;;;;;;;15.89;96.69;102084.88;4993753;28;20763;-57
2021/06/26 06:00:05;;;;;;;51.60;35.17;;;;;;;15.96;96.24;102078.22;4994657;28;20045;-57
2021/06/26 06:02:30;;;;;;;51.35;34.33;;;;;;;15.97;96.75;102079.97;4990428;28;20112;-59
2021/06/26 06:04:56;;;;;;;57.03;35.50;;;;;;;15.94;95.92;102087.34;4992210;28;20561;-57
2021/06/26 06:07:21;;;;;;;57.10;36.20;;;;;;;15.94;96.28;102088.19;4989382;28;20022;-57
2021/06/26 06:09:46;;;;;;;51.75;35.03;;;;;;;15.90;96.29;102086.63;4990853;28;20037;-58
2021/06/26 06:12:12;;;;;;;56.03;36.88;;;;;;;15.86;96.31;102090.47;4991728;28;20095;-57
2021/06/26 06:14:37;;;;;;;55.33;35.65;;;;;;;15.89;96.54;102089.41;4991368;28;20529;-56
2021/06/26 06:17:03;;;;;;;60.45;38.70;;;;;;;15.93;96.86;102085.59;4993252;28;20030;-57
2021/06/26 06:19:28;;;;;;;56.95;36.90;;;;;;;15.98;96.39;102089.78;4989280;28;20038;-55
2021/06/26 06:21:54;;;;;;;54.45;37.38;;;;;;;16.07;96.08;102085.72;4991227;28;20541;-59
2021/06/26 06:24:19;;;;;;;60.22;36.42;;;;;;;16.13;96.53;102093.47;4990797;28;20032;-57
2021/06/26 06:26:44;;;;;;;51.40;34.80;;;;;;;16.21;95.66;102103.84;5005120;28;20096;-55
2021/06/26 06:29:10;;;;;;;54.50;36.42;;;;;;;16.37;95.20;102106.53;4991789;28;20034;-55
2021/06/26 06:31:35;;;;;;;53.58;36.50;;;;;;;16.60;95.20;102104.41;4991280;28;20060;-54
2021/06/26 06:34:00;;;;;;;51.72;35.85;;;;;;;16.80;94.34;102107.81;4994148;28;20045;-56
2021/06/26 06:36:26;;;;;;;48.60;33.53;;;;;;;16.88;93.57;102103.72;4989832;28;20021;-57
2021/06/26 06:38:51;;;;;;;47.33;33.58;;;;;;;16.98;93.04;102100.53;4995172;28;20022;-56
2021/06/26 06:41:17;;;;;;;44.08;31.80;;;;;;;17.05;91.43;102102.75;4987346;28;20478;-57
2021/06/26 06:43:43;;;;;;;45.83;33.10;;;;;;;17.13;92.06;102104.16;4992756;28;20030;-56
2021/06/26 06:46:09;;;;;;;41.70;31.52;;;;;;;17.08;90.65;102099.06;4990832;28;20376;-54
2021/06/26 06:48:34;;;;;;;43.30;31.67;;;;;;;17.13;91.19;102099.63;4992433;28;20033;-56
2021/06/26 06:50:59;;;;;;;48.97;34.37;;;;;;;17.08;91.51;102104.44;4986049;28;20025;-55
2021/06/26 06:53:25;;;;;;;41.45;28.67;;;;;;;17.24;91.72;102101.72;4990932;28;20269;-55
2021/06/26 06:55:51;;;;;;;43.50;31.50;;;;;;;17.42;90.90;102104.28;4992391;28;20030;-54
2021/06/26 06:58:19;;;;;;;48.13;32.78;;;;;;;17.52;91.27;102109.03;4988822;28;20202;-55
2021/06/26 07:00:45;;;;;;;42.30;31.40;;;;;;;17.56;90.15;102110.56;4989101;28;20371;-56
2021/06/26 07:03:10;;;;;;;40.13;30.65;;;;;;;17.50;88.53;102108.25;4991394;28;20291;-56
2021/06/26 07:05:36;;;;;;;;;;;;;;;17.64;89.34;102102.03;4988597;28;20060;-55
2021/06/26 07:08:01;;;;;;;41.43;30.13;;;;;;;17.81;87.85;102102.84;4983683;28;20045;-54
2021/06/26 07:10:26;;;;;;;;;;;;;;;18.04;88.68;102101.44;4988736;28;20025;-57
2021/06/26 07:12:52;;;;;;;41.13;29.67;;;;;;;18.20;86.97;102104.03;4994412;28;20069;-58
2021/06/26 07:15:17;;;;;;;35.58;27.85;;;;;;;18.22;86.70;102103.97;4985973;28;20093;-57
2021/06/26 07:17:42;;;;;;;39.87;29.83;;;;;;;18.22;86.69;102101.28;4991035;28;20334;-57
2021/06/26 07:20:08;;;;;;;;;;;;;;;18.24;86.27;102097.50;4989045;28;20173;-56
2021/06/26 07:22:33;;;;;;;40.47;29.23;;;;;;;18.37;87.19;102099.41;4989754;28;19925;-54
2021/06/26 07:24:59;;;;;;;36.95;29.50;;;;;;;18.53;87.00;102094.75;4990111;28;20030;-55
2021/06/26 07:27:24;;;;;;;;;;;;;;;18.79;84.72;102098.47;4992266;28;20128;-57
2021/06/26 07:29:49;;;;;;;34.53;25.93;;;;;;;18.87;83.24;102094.41;4996107;28;19917;-54
2021/06/26 07:32:14;;;;;;;;;;;;;;;18.90;83.63;102099.63;4988756;28;20042;-56
2021/06/26 07:34:40;;;;;;;31.10;24.90;;;;;;;19.03;83.28;102089.75;4992664;28;19952;-56
2021/06/26 07:37:05;;;;;;;;;;;;;;;19.28;83.09;102102.47;4986941;28;20116;-57
2021/06/26 07:39:30;;;;;;;31.77;24.70;;;;;;;19.37;81.36;102098.31;4992890;28;19944;-57
2021/06/26 07:41:56;;;;;;;30.60;24.93;;;;;;;19.48;82.63;102105.69;4990240;28;20371;-57
2021/06/26 07:44:22;;;;;;;;;;;;;;;19.53;80.57;102098.13;4990442;28;20454;-56
2021/06/26 07:46:48;;;;;;;32.40;24.27;;;;;;;19.43;83.11;102092.47;5005255;28;20385;-58
2021/06/26 07:49:13;;;;;;;30.17;23.38;;;;;;;19.28;82.05;102096.22;4983458;28;20376;-57
2021/06/26 07:51:39;;;;;;;;;;;;;;;19.27;83.46;102098.03;4991946;28;20048;-55
2021/06/26 07:54:04;;;;;;;26.30;20.60;;;;;;;19.19;80.87;102094.13;4987920;28;20407;-56
2021/06/26 07:56:30;;;;;;;;;;;;;;;19.09;82.66;102099.28;4990541;28;20044;-57
2021/06/26 07:58:56;;;;;;;26.83;20.80;;;;;;;18.99;82.39;102099.03;4988342;28;20011;-57
2021/06/26 08:01:21;;;;;;;29.97;22.90;;;;;;;19.00;83.88;102100.78;4987563;28;20088;-56
2021/06/26 08:03:48;;;;;;;33.25;22.27;;;;;;;19.09;84.63;102105.56;4992462;28;20289;-56
2021/06/26 08:06:13;;;;;;;;;;;;;;;19.33;83.75;102095.91;4990504;28;20413;-57
2021/06/26 08:08:38;;;;;;;25.80;21.67;;;;;;;19.67;83.81;102099.00;4992497;28;19948;-57
2021/06/26 08:11:03;;;;;;;;;;;;;;;20.03;82.77;102095.59;4987135;28;20048;-55
2021/06/26 08:13:29;;;;;;;28.00;22.90;;;;;;;20.39;79.05;102088.50;4988883;28;19929;-57
2021/06/26 08:15:54;;;;;;;;;;;;;;;20.38;78.08;102089.47;4991175;28;20041;-56
2021/06/26 08:18:19;;;;;;;22.73;19.93;;;;;;;20.68;74.68;102080.09;4986866;28;19921;-58
2021/06/26 08:20:44;;;;;;;;;;;;;;;21.15;73.95;102082.09;4991325;28;20034;-57
2021/06/26 08:23:10;;;;;;;29.03;19.47;;;;;;;21.40;71.07;102085.63;4989158;28;20376;-55
2021/06/26 08:25:36;;;;;;;23.33;19.60;;;;;;;21.18;73.09;102090.00;4993275;28;20034;-56
2021/06/26 08:28:01;;;;;;;;;;;;;;;21.15;75.27;102090.25;4990888;28;20018;-57
2021/06/26 08:30:27;;;;;;;25.53;21.63;;;;;;;21.13;75.40;102087.63;4988545;28;19925;-57
2021/06/26 08:32:52;;;;;;;;;;;;;;;21.24;76.68;102085.94;4989498;28;20470;-57
2021/06/26 08:35:18;;;;;;;24.57;19.13;;;;;;;21.60;72.62;102085.00;5004646;28;20278;-57
2021/06/26 08:37:44;;;;;;;20.80;18.60;;;;;;;21.79;70.20;102089.84;4987932;28;20621;-56
2021/06/26 08:40:11;;;;;;;21.20;18.60;;;;;;;22.07;68.67;102082.22;4986360;28;20034;-56
2021/06/26 08:42:36;;;;;;;21.07;17.67;;;;;;;22.14;69.01;102085.31;4991344;28;20231;-56
2021/06/26 08:45:05;;;;;;;21.47;18.33;;;;;;;22.07;71.56;102086.81;5004183;28;20087;-56
2021/06/26 08:47:30;;;;;;;22.67;17.90;;;;;;;21.93;69.49;102088.75;4986795;28;20499;-54
2021/06/26 08:49:56;;;;;;;20.17;17.80;;;;;;;21.48;72.48;102089.50;4990275;28;20022;-55
2021/06/26 08:52:21;;;;;;;27.73;19.47;;;;;;;21.13;72.65;102093.06;4989619;28;20044;-56
2021/06/26 08:54:55;;;;;;;22.73;19.97;;;;;;;20.92;72.99;102087.38;4991358;28;20037;-56
2021/06/26 08:57:30;;;;;;;24.93;20.97;;;;;;;20.83;76.05;102088.09;4993706;28;20030;-58
2021/06/26 08:59:58;;;;;;;28.13;22.50;;;;;;;20.65;71.39;102084.88;4994923;28;20811;-57
2021/06/26 09:02:24;;;;;;;27.47;23.50;;;;;;;20.44;76.96;102092.72;4987287;28;20049;-57
2021/06/26 09:04:49;;;;;;;26.43;22.37;;;;;;;20.46;77.32;102096.22;5005784;28;20490;-57
2021/06/26 09:07:14;;;;;;;;;;;;;;;20.53;75.57;102102.91;4992119;28;20030;-57
2021/06/26 09:09:40;;;;;;;26.33;21.57;;;;;;;20.64;78.57;102102.97;4990815;28;19971;-58
2021/06/26 09:12:05;;;;;;;;;;;;;;;20.71;75.18;102100.69;4973439;28;20038;-57
2021/06/26 09:14:31;;;;;;;25.87;20.73;;;;;;;21.02;74.44;102098.44;4989030;28;19968;-58
2021/06/26 09:16:57;;;;;;;28.70;23.77;;;;;;;21.25;75.40;102099.41;4992045;28;20343;-57
2021/06/26 09:19:23;;;;;;;25.73;21.67;;;;;;;21.31;72.30;102104.34;4987554;28;20034;-56
2021/06/26 09:22:14;;;;;;;;;;;;;;;21.31;71.39;102098.06;4995054;28;20057;-55
2021/06/26 09:24:43;;;;;;;28.67;19.83;;;;;;;21.49;73.23;102102.06;4986304;28;20044;-56
2021/06/26 09:27:09;;;;;;;23.93;20.43;;;;;;;21.75;70.65;102099.22;4988767;28;20077;-56
2021/06/26 09:29:35;;;;;;;26.53;20.50;;;;;;;21.93;74.54;102096.91;4988539;28;20036;-57
2021/06/26 09:32:05;;;;;;;25.67;19.27;;;;;;;22.07;69.05;102100.41;4993297;28;20046;-57
2021/06/26 09:34:44;;;;;;;25.97;19.87;;;;;;;22.22;70.05;102095.56;4989673;28;20030;-58
2021/06/26 09:37:17;;;;;;;25.53;20.60;;;;;;;22.32;69.88;102101.13;4995343;28;20114;-56
2021/06/26 09:39:45;;;;;;;27.07;20.10;;;;;;;22.18;67.14;102092.22;4989323;28;20118;-57
2021/06/26 09:42:27;;;;;;;22.57;19.80;;;;;;;22.50;65.94;102099.66;4990688;28;20048;-57
2021/06/26 09:44:58;;;;;;;24.00;19.50;;;;;;;22.82;68.46;102107.03;4995453;28;20044;-57
2021/06/26 09:47:25;;;;;;;24.00;19.60;;;;;;;22.93;66.80;102103.44;4987010;28;20257;-58
2021/06/26 09:49:51;;;;;;;24.27;20.07;;;;;;;22.97;68.24;102106.75;4989632;28;20272;-58
2021/06/26 09:52:16;;;;;;;27.77;21.73;;;;;;;22.98;65.47;102103.03;4989593;28;20168;-57
2021/06/26 09:54:41;;;;;;;29.53;23.17;;;;;;;23.02;66.15;102099.06;4991881;28;20504;-57
2021/06/26 09:57:07;;;;;;;29.07;24.40;;;;;;;23.03;69.16;102095.34;4989366;28;20041;-57
2021/06/26 09:59:34;;;;;;;29.50;24.40;;;;;;;22.98;65.46;102097.59;4990565;28;20129;-58
2021/06/26 10:02:00;;;;;;;27.90;24.33;;;;;;;23.00;64.27;102101.03;4990656;28;20131;-57
2021/06/26 10:04:26;;;;;;;26.30;23.27;;;;;;;23.12;66.61;102091.84;4991187;28;20355;-56
2021/06/26 10:06:52;;;;;;;28.93;23.70;;;;;;;23.13;66.21;102093.59;4993297;28;20544;-57
2021/06/26 10:09:18;;;;;;;28.63;24.70;;;;;;;23.18;63.21;102094.09;4985121;28;20032;-55
2021/06/26 10:11:44;;;;;;;29.07;25.83;;;;;;;23.09;65.71;102092.09;4991264;28;20909;-58
2021/06/26 10:14:11;;;;;;;31.27;26.20;;;;;;;22.86;64.53;102092.16;4991766;28;20491;-58
2021/06/26 10:16:38;;;;;;;31.50;28.00;;;;;;;22.85;64.55;102089.59;4991372;28;20084;-57
2021/06/26 10:19:11;;;;;;;31.43;27.87;;;;;;;22.80;66.53;102098.13;4990421;28;20048;-56
2021/06/26 10:21:36;;;;;;;33.73;27.17;;;;;;;22.81;65.26;102088.97;4986607;28;20076;-58
2021/06/26 10:24:08;;;;;;;30.60;27.27;;;;;;;22.98;66.79;102084.84;4994269;28;20068;-58
2021/06/26 10:26:38;;;;;;;44.20;29.87;;;;;;;23.13;64.42;102093.59;4988679;28;20599;-56
2021/06/26 10:29:04;;;;;;;44.73;32.23;;;;;;;23.06;64.88;102086.94;4991012;28;20640;-58
2021/06/26 10:31:31;;;;;;;32.73;24.90;;;;;;;23.26;62.21;102081.69;4990225;28;20513;-58
2021/06/26 10:34:39;;;;;;;34.13;28.47;;;;;;;23.32;63.26;102087.47;4994070;28;20167;-58
2021/06/26 10:37:19;;;;;;;43.50;30.60;;;;;;;23.55;65.52;102085.47;4980683;28;20608;-57
2021/06/26 10:39:46;;;;;;;89.97;50.93;;;;;;;23.69;66.62;102088.88;4989922;28;20458;-56
2021/06/26 10:42:14;;;;;;;29.87;26.47;;;;;;;23.56;58.04;102083.63;4990461;28;20452;-58
2021/06/26 10:44:51;;;;;;;31.63;26.70;;;;;;;23.39;64.13;102088.69;4994639;28;20022;-58
2021/06/26 10:47:35;;;;;;;32.43;25.63;;;;;;;23.36;61.73;102077.19;4990202;28;20026;-58
2021/06/26 10:50:21;;;;;;;32.47;26.47;;;;;;;23.57;60.25;102079.91;4989030;28;20132;-57
2021/06/26 10:52:55;;;;;;;31.48;25.08;;;;;;;23.80;60.43;102091.53;4991607;28;20041;-57
2021/06/26 10:55:33;;;;;;;29.53;25.97;;;;;;;23.64;59.78;102081.09;4986784;28;20053;-56
2021/06/26 10:58:00;;;;;;;35.73;25.60;;;;;;;23.65;61.18;102088.25;4993149;28;20576;-56
2021/06/26 11:00:38;;;;;;;32.97;25.93;;;;;;;23.69;61.54;102088.88;4987625;28;20445;-58
2021/06/26 11:03:05;;;;;;;30.23;26.10;;;;;;;23.70;62.81;102086.03;4996001;28;20041;-57
2021/06/26 11:05:36;;;;;;;29.07;23.73;;;;;;;23.73;58.84;102089.47;4988953;28;20529;-57
2021/06/26 11:08:13;;;;;;;29.27;24.53;;;;;;;23.95;59.24;102091.22;4991057;28;20366;-57